Trabzon, Turkey
Current Conditions -  °F | °C
As of 3:20 PM on Tuesday 27 Jan 2015 (Local Time) from LTCG Reporting Station
Broken Clouds Broken Clouds  
Wind Chill: 44°   Ceiling: 400
Heat Index: 46°   Visibility: 4mi
Dew Point: 45°   Wind: 6mph
Humidity: 93%   Direction: 60°ENE
Pressure: 30.09"   Gusts: NA
Location:  41°N, 39.71°E
Report Text: LTCG 271220Z 06005KT 6000 BKN004 08/07 Q1019 BECMG TL1400 BKN006
Loading
Personal Weather Stations






























Interactive Weather Map New forecast layout! Learn more

10-Day Weather Forecast

Advertisements
Track Severe Weather on mobile